sensor_id;sensor_type;location;lat;lon;timestamp;P1;durP1;ratioP1;P2;durP2;ratioP2
11338;SDS011;5724;42.684;23.252;2023-04-24T00:00:13;8.57;;;7.95;;
11338;SDS011;5724;42.684;23.252;2023-04-24T00:02:40;8.60;;;7.75;;
11338;SDS011;5724;42.684;23.252;2023-04-24T00:05:11;9.48;;;8.70;;
11338;SDS011;5724;42.684;23.252;2023-04-24T00:07:37;8.48;;;7.78;;
11338;SDS011;5724;42.684;23.252;2023-04-24T00:10:03;9.05;;;8.23;;
11338;SDS011;5724;42.684;23.252;2023-04-24T00:12:28;9.18;;;8.18;;
11338;SDS011;5724;42.684;23.252;2023-04-24T00:14:54;8.75;;;7.97;;
11338;SDS011;5724;42.684;23.252;2023-04-24T00:17:20;8.77;;;7.82;;
11338;SDS011;5724;42.684;23.252;2023-04-24T00:19:46;8.60;;;8.10;;
11338;SDS011;5724;42.684;23.252;2023-04-24T00:22:12;8.82;;;8.13;;
11338;SDS011;5724;42.684;23.252;2023-04-24T00:24:40;9.60;;;8.70;;
11338;SDS011;5724;42.684;23.252;2023-04-24T00:27:06;9.30;;;8.60;;
11338;SDS011;5724;42.684;23.252;2023-04-24T00:29:31;9.27;;;8.32;;
11338;SDS011;5724;42.684;23.252;2023-04-24T00:31:57;8.85;;;7.82;;
11338;SDS011;5724;42.684;23.252;2023-04-24T00:34:22;10.25;;;8.60;;
11338;SDS011;5724;42.684;23.252;2023-04-24T00:36:48;8.85;;;8.15;;
11338;SDS011;5724;42.684;23.252;2023-04-24T00:39:20;8.77;;;8.02;;
11338;SDS011;5724;42.684;23.252;2023-04-24T00:41:46;9.55;;;8.77;;
11338;SDS011;5724;42.684;23.252;2023-04-24T00:44:13;9.48;;;8.52;;
11338;SDS011;5724;42.684;23.252;2023-04-24T00:46:40;9.45;;;8.50;;
11338;SDS011;5724;42.684;23.252;2023-04-24T00:49:06;11.70;;;8.85;;
11338;SDS011;5724;42.684;23.252;2023-04-24T00:51:32;9.50;;;8.73;;
11338;SDS011;5724;42.684;23.252;2023-04-24T00:53:58;12.65;;;8.60;;
11338;SDS011;5724;42.684;23.252;2023-04-24T00:56:24;8.68;;;7.80;;
11338;SDS011;5724;42.684;23.252;2023-04-24T00:58:50;9.75;;;7.80;;
11338;SDS011;5724;42.684;23.252;2023-04-24T01:01:16;8.80;;;8.07;;
11338;SDS011;5724;42.684;23.252;2023-04-24T01:03:43;11.68;;;9.07;;
11338;SDS011;5724;42.684;23.252;2023-04-24T01:06:09;9.75;;;8.85;;
11338;SDS011;5724;42.684;23.252;2023-04-24T01:08:35;8.98;;;8.18;;
11338;SDS011;5724;42.684;23.252;2023-04-24T01:11:01;8.80;;;8.25;;
11338;SDS011;5724;42.684;23.252;2023-04-24T01:13:29;9.00;;;8.35;;
11338;SDS011;5724;42.684;23.252;2023-04-24T01:15:54;9.30;;;8.50;;
11338;SDS011;5724;42.684;23.252;2023-04-24T01:18:20;8.38;;;7.70;;
11338;SDS011;5724;42.684;23.252;2023-04-24T01:20:46;9.00;;;8.15;;
11338;SDS011;5724;42.684;23.252;2023-04-24T01:23:15;10.05;;;9.07;;
11338;SDS011;5724;42.684;23.252;2023-04-24T01:25:42;9.20;;;7.95;;
11338;SDS011;5724;42.684;23.252;2023-04-24T01:28:08;8.82;;;8.13;;
11338;SDS011;5724;42.684;23.252;2023-04-24T01:30:33;7.53;;;6.97;;
11338;SDS011;5724;42.684;23.252;2023-04-24T01:32:59;9.27;;;6.88;;
11338;SDS011;5724;42.684;23.252;2023-04-24T01:35:24;7.95;;;7.38;;
11338;SDS011;5724;42.684;23.252;2023-04-24T01:37:51;7.43;;;6.75;;
11338;SDS011;5724;42.684;23.252;2023-04-24T01:40:16;6.85;;;6.35;;
11338;SDS011;5724;42.684;23.252;2023-04-24T01:42:42;8.90;;;6.53;;
11338;SDS011;5724;42.684;23.252;2023-04-24T01:45:08;6.60;;;6.05;;
11338;SDS011;5724;42.684;23.252;2023-04-24T01:47:35;6.40;;;5.80;;
11338;SDS011;5724;42.684;23.252;2023-04-24T01:50:01;9.27;;;6.03;;
11338;SDS011;5724;42.684;23.252;2023-04-24T01:52:28;6.95;;;6.03;;
11338;SDS011;5724;42.684;23.252;2023-04-24T01:54:56;7.00;;;6.13;;
11338;SDS011;5724;42.684;23.252;2023-04-24T01:57:24;6.85;;;6.30;;
11338;SDS011;5724;42.684;23.252;2023-04-24T01:59:50;6.85;;;6.07;;
11338;SDS011;5724;42.684;23.252;2023-04-24T02:02:16;6.85;;;6.28;;
11338;SDS011;5724;42.684;23.252;2023-04-24T02:04:42;6.68;;;6.15;;
11338;SDS011;5724;42.684;23.252;2023-04-24T02:07:08;6.95;;;6.38;;
11338;SDS011;5724;42.684;23.252;2023-04-24T02:09:33;7.07;;;6.38;;
11338;SDS011;5724;42.684;23.252;2023-04-24T02:11:59;5.72;;;5.22;;
11338;SDS011;5724;42.684;23.252;2023-04-24T02:14:25;6.60;;;6.20;;
11338;SDS011;5724;42.684;23.252;2023-04-24T02:16:51;8.10;;;7.40;;
11338;SDS011;5724;42.684;23.252;2023-04-24T02:19:16;8.85;;;7.65;;
11338;SDS011;5724;42.684;23.252;2023-04-24T02:21:41;8.68;;;7.90;;
11338;SDS011;5724;42.684;23.252;2023-04-24T02:24:07;7.78;;;7.05;;
11338;SDS011;5724;42.684;23.252;2023-04-24T02:26:32;8.40;;;7.70;;
11338;SDS011;5724;42.684;23.252;2023-04-24T02:28:58;7.90;;;7.35;;
11338;SDS011;5724;42.684;23.252;2023-04-24T02:31:23;8.40;;;7.70;;
11338;SDS011;5724;42.684;23.252;2023-04-24T02:33:49;7.97;;;7.38;;
11338;SDS011;5724;42.684;23.252;2023-04-24T02:36:14;9.27;;;7.28;;
11338;SDS011;5724;42.684;23.252;2023-04-24T02:38:39;8.20;;;7.35;;
11338;SDS011;5724;42.684;23.252;2023-04-24T02:41:05;8.10;;;7.45;;
11338;SDS011;5724;42.684;23.252;2023-04-24T02:43:31;7.90;;;7.30;;
11338;SDS011;5724;42.684;23.252;2023-04-24T02:45:58;7.40;;;6.82;;
11338;SDS011;5724;42.684;23.252;2023-04-24T02:48:24;8.15;;;7.55;;
11338;SDS011;5724;42.684;23.252;2023-04-24T02:50:49;8.93;;;8.05;;
11338;SDS011;5724;42.684;23.252;2023-04-24T02:53:15;8.00;;;7.38;;
11338;SDS011;5724;42.684;23.252;2023-04-24T02:55:41;8.70;;;7.93;;
11338;SDS011;5724;42.684;23.252;2023-04-24T02:58:07;8.40;;;7.80;;
11338;SDS011;5724;42.684;23.252;2023-04-24T03:00:32;8.90;;;8.07;;
11338;SDS011;5724;42.684;23.252;2023-04-24T03:02:58;9.43;;;8.60;;
11338;SDS011;5724;42.684;23.252;2023-04-24T03:05:23;9.67;;;8.90;;
11338;SDS011;5724;42.684;23.252;2023-04-24T03:07:48;8.83;;;8.13;;
11338;SDS011;5724;42.684;23.252;2023-04-24T03:10:14;9.37;;;8.67;;
11338;SDS011;5724;42.684;23.252;2023-04-24T03:12:40;11.40;;;8.43;;
11338;SDS011;5724;42.684;23.252;2023-04-24T03:15:05;8.93;;;8.13;;
11338;SDS011;5724;42.684;23.252;2023-04-24T03:17:31;9.10;;;8.23;;
11338;SDS011;5724;42.684;23.252;2023-04-24T03:19:57;8.93;;;8.10;;
11338;SDS011;5724;42.684;23.252;2023-04-24T03:22:23;8.13;;;6.60;;
11338;SDS011;5724;42.684;23.252;2023-04-24T03:24:48;9.07;;;7.60;;
11338;SDS011;5724;42.684;23.252;2023-04-24T03:27:14;8.90;;;8.03;;
11338;SDS011;5724;42.684;23.252;2023-04-24T03:29:39;10.07;;;7.90;;
11338;SDS011;5724;42.684;23.252;2023-04-24T03:32:05;9.50;;;6.83;;
11338;SDS011;5724;42.684;23.252;2023-04-24T03:34:31;7.53;;;6.93;;
11338;SDS011;5724;42.684;23.252;2023-04-24T03:36:56;8.97;;;7.40;;
11338;SDS011;5724;42.684;23.252;2023-04-24T03:39:22;8.53;;;7.73;;
11338;SDS011;5724;42.684;23.252;2023-04-24T03:41:47;8.30;;;7.30;;
11338;SDS011;5724;42.684;23.252;2023-04-24T03:44:12;7.70;;;7.10;;
11338;SDS011;5724;42.684;23.252;2023-04-24T03:46:38;8.87;;;7.83;;
11338;SDS011;5724;42.684;23.252;2023-04-24T03:49:03;9.45;;;7.00;;
11338;SDS011;5724;42.684;23.252;2023-04-24T03:51:29;8.93;;;8.30;;
11338;SDS011;5724;42.684;23.252;2023-04-24T03:53:55;10.25;;;9.32;;
11338;SDS011;5724;42.684;23.252;2023-04-24T03:56:21;8.45;;;7.80;;
11338;SDS011;5724;42.684;23.252;2023-04-24T03:58:46;16.17;;;13.82;;
11338;SDS011;5724;42.684;23.252;2023-04-24T04:01:12;12.70;;;11.48;;
11338;SDS011;5724;42.684;23.252;2023-04-24T04:03:38;9.00;;;8.07;;
11338;SDS011;5724;42.684;23.252;2023-04-24T04:06:04;7.97;;;7.25;;
11338;SDS011;5724;42.684;23.252;2023-04-24T04:08:30;6.47;;;5.90;;
11338;SDS011;5724;42.684;23.252;2023-04-24T04:10:56;9.25;;;7.32;;
11338;SDS011;5724;42.684;23.252;2023-04-24T04:13:21;9.57;;;8.57;;
11338;SDS011;5724;42.684;23.252;2023-04-24T04:15:47;10.77;;;8.15;;
11338;SDS011;5724;42.684;23.252;2023-04-24T04:18:12;8.43;;;7.53;;
11338;SDS011;5724;42.684;23.252;2023-04-24T04:20:38;8.20;;;7.50;;
11338;SDS011;5724;42.684;23.252;2023-04-24T04:23:03;8.57;;;7.07;;
11338;SDS011;5724;42.684;23.252;2023-04-24T04:25:29;7.93;;;7.05;;
11338;SDS011;5724;42.684;23.252;2023-04-24T04:27:54;8.43;;;7.70;;
11338;SDS011;5724;42.684;23.252;2023-04-24T04:30:20;7.75;;;7.05;;
11338;SDS011;5724;42.684;23.252;2023-04-24T04:32:46;8.50;;;7.70;;
11338;SDS011;5724;42.684;23.252;2023-04-24T04:35:12;7.40;;;6.90;;
11338;SDS011;5724;42.684;23.252;2023-04-24T04:37:37;7.70;;;6.95;;
11338;SDS011;5724;42.684;23.252;2023-04-24T04:40:03;10.98;;;7.72;;
11338;SDS011;5724;42.684;23.252;2023-04-24T04:42:32;9.57;;;8.03;;
11338;SDS011;5724;42.684;23.252;2023-04-24T04:44:59;8.35;;;7.22;;
11338;SDS011;5724;42.684;23.252;2023-04-24T04:47:25;9.95;;;8.27;;
11338;SDS011;5724;42.684;23.252;2023-04-24T04:49:52;11.40;;;8.07;;
11338;SDS011;5724;42.684;23.252;2023-04-24T04:52:18;17.85;;;13.73;;
11338;SDS011;5724;42.684;23.252;2023-04-24T04:54:43;10.52;;;9.27;;
11338;SDS011;5724;42.684;23.252;2023-04-24T04:57:09;9.85;;;8.88;;
11338;SDS011;5724;42.684;23.252;2023-04-24T04:59:35;9.68;;;8.00;;
11338;SDS011;5724;42.684;23.252;2023-04-24T05:02:00;9.32;;;7.68;;
11338;SDS011;5724;42.684;23.252;2023-04-24T05:04:26;9.57;;;7.63;;
11338;SDS011;5724;42.684;23.252;2023-04-24T05:06:52;7.95;;;7.43;;
11338;SDS011;5724;42.684;23.252;2023-04-24T05:09:17;11.93;;;7.10;;
11338;SDS011;5724;42.684;23.252;2023-04-24T05:11:43;6.80;;;6.30;;
11338;SDS011;5724;42.684;23.252;2023-04-24T05:14:09;7.88;;;6.68;;
11338;SDS011;5724;42.684;23.252;2023-04-24T05:16:35;9.15;;;8.25;;
11338;SDS011;5724;42.684;23.252;2023-04-24T05:19:02;11.00;;;7.05;;
11338;SDS011;5724;42.684;23.252;2023-04-24T05:21:28;9.25;;;6.70;;
11338;SDS011;5724;42.684;23.252;2023-04-24T05:23:54;7.85;;;6.53;;
11338;SDS011;5724;42.684;23.252;2023-04-24T05:26:19;7.50;;;6.85;;
11338;SDS011;5724;42.684;23.252;2023-04-24T05:28:45;11.07;;;7.03;;
11338;SDS011;5724;42.684;23.252;2023-04-24T05:31:10;11.10;;;6.93;;
11338;SDS011;5724;42.684;23.252;2023-04-24T05:33:37;7.40;;;6.85;;
11338;SDS011;5724;42.684;23.252;2023-04-24T05:36:03;9.23;;;6.80;;
11338;SDS011;5724;42.684;23.252;2023-04-24T05:38:30;7.55;;;6.85;;
11338;SDS011;5724;42.684;23.252;2023-04-24T05:40:56;7.55;;;6.35;;
11338;SDS011;5724;42.684;23.252;2023-04-24T05:43:21;8.20;;;7.40;;
11338;SDS011;5724;42.684;23.252;2023-04-24T05:45:47;10.25;;;7.10;;
11338;SDS011;5724;42.684;23.252;2023-04-24T05:48:12;8.35;;;6.28;;
11338;SDS011;5724;42.684;23.252;2023-04-24T05:50:37;12.65;;;6.95;;
11338;SDS011;5724;42.684;23.252;2023-04-24T05:53:03;10.75;;;7.20;;
11338;SDS011;5724;42.684;23.252;2023-04-24T05:55:30;7.95;;;6.68;;
11338;SDS011;5724;42.684;23.252;2023-04-24T05:57:56;8.40;;;6.28;;
11338;SDS011;5724;42.684;23.252;2023-04-24T06:00:22;7.38;;;6.65;;
11338;SDS011;5724;42.684;23.252;2023-04-24T06:02:47;8.93;;;6.60;;
11338;SDS011;5724;42.684;23.252;2023-04-24T06:05:13;9.68;;;7.95;;
11338;SDS011;5724;42.684;23.252;2023-04-24T06:07:39;7.43;;;6.82;;
11338;SDS011;5724;42.684;23.252;2023-04-24T06:10:05;8.02;;;7.28;;
11338;SDS011;5724;42.684;23.252;2023-04-24T06:12:31;14.10;;;8.10;;
11338;SDS011;5724;42.684;23.252;2023-04-24T06:14:56;11.00;;;8.13;;
11338;SDS011;5724;42.684;23.252;2023-04-24T06:17:22;7.75;;;7.32;;
11338;SDS011;5724;42.684;23.252;2023-04-24T06:19:47;9.10;;;8.20;;
11338;SDS011;5724;42.684;23.252;2023-04-24T06:22:13;10.63;;;8.00;;
11338;SDS011;5724;42.684;23.252;2023-04-24T06:24:39;9.35;;;8.15;;
11338;SDS011;5724;42.684;23.252;2023-04-24T06:27:05;12.93;;;7.90;;
11338;SDS011;5724;42.684;23.252;2023-04-24T06:29:30;7.93;;;6.97;;
11338;SDS011;5724;42.684;23.252;2023-04-24T06:31:56;9.35;;;7.78;;
11338;SDS011;5724;42.684;23.252;2023-04-24T06:34:21;9.55;;;8.60;;
11338;SDS011;5724;42.684;23.252;2023-04-24T06:36:47;11.25;;;8.32;;
11338;SDS011;5724;42.684;23.252;2023-04-24T06:39:12;11.30;;;8.32;;
11338;SDS011;5724;42.684;23.252;2023-04-24T06:41:38;8.48;;;7.68;;
11338;SDS011;5724;42.684;23.252;2023-04-24T06:44:04;10.45;;;9.52;;
11338;SDS011;5724;42.684;23.252;2023-04-24T06:46:30;12.65;;;9.27;;
11338;SDS011;5724;42.684;23.252;2023-04-24T06:48:56;10.95;;;8.82;;
11338;SDS011;5724;42.684;23.252;2023-04-24T06:51:24;12.27;;;8.60;;
11338;SDS011;5724;42.684;23.252;2023-04-24T06:53:53;10.90;;;8.90;;
11338;SDS011;5724;42.684;23.252;2023-04-24T06:56:19;10.38;;;9.43;;
11338;SDS011;5724;42.684;23.252;2023-04-24T06:58:45;11.52;;;10.00;;
11338;SDS011;5724;42.684;23.252;2023-04-24T07:01:11;10.70;;;8.40;;
11338;SDS011;5724;42.684;23.252;2023-04-24T07:03:37;8.32;;;7.53;;
11338;SDS011;5724;42.684;23.252;2023-04-24T07:06:02;7.72;;;7.07;;
11338;SDS011;5724;42.684;23.252;2023-04-24T07:08:28;10.13;;;7.22;;
11338;SDS011;5724;42.684;23.252;2023-04-24T07:10:55;7.70;;;6.93;;
11338;SDS011;5724;42.684;23.252;2023-04-24T07:13:21;7.18;;;6.63;;
11338;SDS011;5724;42.684;23.252;2023-04-24T07:15:47;7.60;;;6.68;;
11338;SDS011;5724;42.684;23.252;2023-04-24T07:18:15;11.63;;;7.00;;
11338;SDS011;5724;42.684;23.252;2023-04-24T07:20:41;8.70;;;7.50;;
11338;SDS011;5724;42.684;23.252;2023-04-24T07:23:07;8.23;;;7.20;;
11338;SDS011;5724;42.684;23.252;2023-04-24T07:25:32;14.25;;;9.98;;
11338;SDS011;5724;42.684;23.252;2023-04-24T07:27:58;7.18;;;6.57;;
11338;SDS011;5724;42.684;23.252;2023-04-24T07:30:23;10.80;;;7.10;;
11338;SDS011;5724;42.684;23.252;2023-04-24T07:32:49;7.85;;;6.75;;
11338;SDS011;5724;42.684;23.252;2023-04-24T07:35:15;8.20;;;7.22;;
11338;SDS011;5724;42.684;23.252;2023-04-24T07:37:40;10.60;;;7.82;;
11338;SDS011;5724;42.684;23.252;2023-04-24T07:40:11;7.95;;;7.22;;
11338;SDS011;5724;42.684;23.252;2023-04-24T07:42:37;7.88;;;7.18;;
11338;SDS011;5724;42.684;23.252;2023-04-24T07:45:03;7.50;;;6.90;;
11338;SDS011;5724;42.684;23.252;2023-04-24T07:47:29;8.93;;;6.85;;
11338;SDS011;5724;42.684;23.252;2023-04-24T07:49:55;7.13;;;6.63;;
11338;SDS011;5724;42.684;23.252;2023-04-24T07:52:21;6.90;;;6.43;;
11338;SDS011;5724;42.684;23.252;2023-04-24T07:54:46;7.65;;;7.00;;
11338;SDS011;5724;42.684;23.252;2023-04-24T07:57:11;10.85;;;6.85;;
11338;SDS011;5724;42.684;23.252;2023-04-24T07:59:37;10.02;;;6.90;;
11338;SDS011;5724;42.684;23.252;2023-04-24T08:02:03;8.00;;;6.93;;
11338;SDS011;5724;42.684;23.252;2023-04-24T08:04:28;7.95;;;6.90;;
11338;SDS011;5724;42.684;23.252;2023-04-24T08:06:54;8.45;;;7.70;;
11338;SDS011;5724;42.684;23.252;2023-04-24T08:09:19;7.90;;;7.15;;
11338;SDS011;5724;42.684;23.252;2023-04-24T08:11:45;7.75;;;6.85;;
11338;SDS011;5724;42.684;23.252;2023-04-24T08:14:10;9.07;;;7.35;;
11338;SDS011;5724;42.684;23.252;2023-04-24T08:16:38;11.50;;;8.13;;
11338;SDS011;5724;42.684;23.252;2023-04-24T08:19:03;9.02;;;7.75;;
11338;SDS011;5724;42.684;23.252;2023-04-24T08:21:29;7.63;;;7.00;;
11338;SDS011;5724;42.684;23.252;2023-04-24T08:23:54;8.60;;;7.47;;
11338;SDS011;5724;42.684;23.252;2023-04-24T08:26:20;9.27;;;8.02;;
11338;SDS011;5724;42.684;23.252;2023-04-24T08:28:45;8.73;;;7.95;;
11338;SDS011;5724;42.684;23.252;2023-04-24T08:31:11;8.45;;;7.63;;
11338;SDS011;5724;42.684;23.252;2023-04-24T08:33:36;8.80;;;7.82;;
11338;SDS011;5724;42.684;23.252;2023-04-24T08:36:02;9.23;;;7.28;;
11338;SDS011;5724;42.684;23.252;2023-04-24T08:38:29;8.40;;;7.80;;
11338;SDS011;5724;42.684;23.252;2023-04-24T08:40:56;8.80;;;7.82;;
11338;SDS011;5724;42.684;23.252;2023-04-24T08:43:23;8.85;;;7.70;;
11338;SDS011;5724;42.684;23.252;2023-04-24T08:45:51;8.18;;;7.57;;
11338;SDS011;5724;42.684;23.252;2023-04-24T08:48:17;7.95;;;7.28;;
11338;SDS011;5724;42.684;23.252;2023-04-24T08:50:43;7.63;;;6.90;;
11338;SDS011;5724;42.684;23.252;2023-04-24T08:53:10;6.93;;;6.45;;
11338;SDS011;5724;42.684;23.252;2023-04-24T08:55:35;7.65;;;6.97;;
11338;SDS011;5724;42.684;23.252;2023-04-24T08:58:02;7.75;;;7.15;;
11338;SDS011;5724;42.684;23.252;2023-04-24T09:00:29;10.30;;;7.05;;
11338;SDS011;5724;42.684;23.252;2023-04-24T09:02:55;8.60;;;7.35;;
11338;SDS011;5724;42.684;23.252;2023-04-24T09:05:21;9.52;;;7.07;;
11338;SDS011;5724;42.684;23.252;2023-04-24T09:07:55;8.45;;;6.88;;
11338;SDS011;5724;42.684;23.252;2023-04-24T09:10:22;10.10;;;6.95;;
11338;SDS011;5724;42.684;23.252;2023-04-24T09:12:50;7.30;;;6.05;;
11338;SDS011;5724;42.684;23.252;2023-04-24T09:15:16;7.00;;;6.30;;
11338;SDS011;5724;42.684;23.252;2023-04-24T09:17:43;8.73;;;6.50;;
11338;SDS011;5724;42.684;23.252;2023-04-24T09:20:08;8.60;;;6.80;;
11338;SDS011;5724;42.684;23.252;2023-04-24T09:22:34;6.65;;;6.03;;
11338;SDS011;5724;42.684;23.252;2023-04-24T09:25:03;6.35;;;5.60;;
11338;SDS011;5724;42.684;23.252;2023-04-24T09:27:32;8.70;;;6.28;;
11338;SDS011;5724;42.684;23.252;2023-04-24T09:30:01;8.85;;;5.47;;
11338;SDS011;5724;42.684;23.252;2023-04-24T09:32:27;6.13;;;5.57;;
11338;SDS011;5724;42.684;23.252;2023-04-24T09:35:08;6.63;;;5.97;;
11338;SDS011;5724;42.684;23.252;2023-04-24T09:37:42;6.53;;;5.72;;
11338;SDS011;5724;42.684;23.252;2023-04-24T09:40:13;7.15;;;5.60;;
11338;SDS011;5724;42.684;23.252;2023-04-24T09:42:44;5.93;;;5.43;;
11338;SDS011;5724;42.684;23.252;2023-04-24T09:45:11;6.25;;;5.65;;
11338;SDS011;5724;42.684;23.252;2023-04-24T09:47:37;5.82;;;5.40;;
11338;SDS011;5724;42.684;23.252;2023-04-24T09:50:13;8.35;;;5.68;;
11338;SDS011;5724;42.684;23.252;2023-04-24T09:52:55;5.90;;;5.50;;
11338;SDS011;5724;42.684;23.252;2023-04-24T09:55:22;9.05;;;6.55;;
11338;SDS011;5724;42.684;23.252;2023-04-24T09:57:51;7.03;;;6.28;;
11338;SDS011;5724;42.684;23.252;2023-04-24T10:00:23;6.80;;;6.13;;
11338;SDS011;5724;42.684;23.252;2023-04-24T10:02:50;6.38;;;5.70;;
11338;SDS011;5724;42.684;23.252;2023-04-24T10:05:22;6.22;;;5.90;;
11338;SDS011;5724;42.684;23.252;2023-04-24T10:07:49;6.90;;;5.55;;
11338;SDS011;5724;42.684;23.252;2023-04-24T10:10:14;5.78;;;5.03;;
11338;SDS011;5724;42.684;23.252;2023-04-24T10:12:40;4.07;;;3.78;;
11338;SDS011;5724;42.684;23.252;2023-04-24T10:15:07;3.05;;;2.92;;
11338;SDS011;5724;42.684;23.252;2023-04-24T10:17:35;3.13;;;2.85;;
11338;SDS011;5724;42.684;23.252;2023-04-24T10:20:01;4.38;;;3.35;;
11338;SDS011;5724;42.684;23.252;2023-04-24T10:22:27;5.78;;;3.53;;
11338;SDS011;5724;42.684;23.252;2023-04-24T10:24:54;4.85;;;3.15;;
11338;SDS011;5724;42.684;23.252;2023-04-24T10:27:22;3.72;;;3.33;;
11338;SDS011;5724;42.684;23.252;2023-04-24T10:29:48;3.70;;;3.40;;
11338;SDS011;5724;42.684;23.252;2023-04-24T10:32:18;3.40;;;2.85;;
11338;SDS011;5724;42.684;23.252;2023-04-24T10:34:43;2.70;;;2.50;;
11338;SDS011;5724;42.684;23.252;2023-04-24T10:37:09;3.17;;;2.90;;
11338;SDS011;5724;42.684;23.252;2023-04-24T10:39:34;3.67;;;3.15;;
11338;SDS011;5724;42.684;23.252;2023-04-24T10:42:02;3.65;;;3.40;;
11338;SDS011;5724;42.684;23.252;2023-04-24T10:44:40;3.20;;;3.00;;
11338;SDS011;5724;42.684;23.252;2023-04-24T10:47:07;4.72;;;2.88;;
11338;SDS011;5724;42.684;23.252;2023-04-24T10:49:39;3.10;;;2.90;;
11338;SDS011;5724;42.684;23.252;2023-04-24T10:52:05;2.78;;;2.67;;
11338;SDS011;5724;42.684;23.252;2023-04-24T11:00:32;3.30;;;3.00;;
11338;SDS011;5724;42.684;23.252;2023-04-24T11:02:39;6.10;;;3.35;;
11338;SDS011;5724;42.684;23.252;2023-04-24T11:05:08;3.72;;;3.05;;
11338;SDS011;5724;42.684;23.252;2023-04-24T11:10:54;3.10;;;2.90;;
11338;SDS011;5724;42.684;23.252;2023-04-24T11:13:23;4.03;;;2.97;;
11338;SDS011;5724;42.684;23.252;2023-04-24T11:18:39;4.07;;;2.90;;
11338;SDS011;5724;42.684;23.252;2023-04-24T11:21:12;3.60;;;3.28;;
11338;SDS011;5724;42.684;23.252;2023-04-24T11:23:39;2.47;;;2.28;;
11338;SDS011;5724;42.684;23.252;2023-04-24T11:26:18;3.08;;;2.97;;
11338;SDS011;5724;42.684;23.252;2023-04-24T11:28:47;3.33;;;3.13;;
11338;SDS011;5724;42.684;23.252;2023-04-24T11:34:12;3.55;;;3.28;;
11338;SDS011;5724;42.684;23.252;2023-04-24T11:36:39;3.58;;;3.30;;
11338;SDS011;5724;42.684;23.252;2023-04-24T11:39:07;3.53;;;3.28;;
11338;SDS011;5724;42.684;23.252;2023-04-24T11:41:33;4.07;;;3.80;;
11338;SDS011;5724;42.684;23.252;2023-04-24T11:44:00;4.20;;;3.90;;
11338;SDS011;5724;42.684;23.252;2023-04-24T11:46:27;5.43;;;4.38;;
11338;SDS011;5724;42.684;23.252;2023-04-24T11:48:54;4.82;;;4.13;;
11338;SDS011;5724;42.684;23.252;2023-04-24T11:51:20;4.20;;;3.92;;
11338;SDS011;5724;42.684;23.252;2023-04-24T11:53:45;5.93;;;5.53;;
11338;SDS011;5724;42.684;23.252;2023-04-24T11:56:10;4.55;;;4.25;;
11338;SDS011;5724;42.684;23.252;2023-04-24T11:58:37;4.57;;;4.28;;
11338;SDS011;5724;42.684;23.252;2023-04-24T12:01:05;4.15;;;3.95;;
11338;SDS011;5724;42.684;23.252;2023-04-24T12:03:31;6.78;;;4.07;;
11338;SDS011;5724;42.684;23.252;2023-04-24T12:06:15;5.47;;;4.30;;
11338;SDS011;5724;42.684;23.252;2023-04-24T12:08:40;4.18;;;3.53;;
11338;SDS011;5724;42.684;23.252;2023-04-24T12:11:07;4.15;;;3.75;;
11338;SDS011;5724;42.684;23.252;2023-04-24T12:13:33;3.17;;;2.88;;
11338;SDS011;5724;42.684;23.252;2023-04-24T12:16:03;3.45;;;3.15;;
11338;SDS011;5724;42.684;23.252;2023-04-24T12:18:32;3.40;;;3.17;;
11338;SDS011;5724;42.684;23.252;2023-04-24T12:23:46;4.30;;;3.90;;
11338;SDS011;5724;42.684;23.252;2023-04-24T12:26:16;4.10;;;3.90;;
11338;SDS011;5724;42.684;23.252;2023-04-24T12:28:43;3.10;;;2.97;;
11338;SDS011;5724;42.684;23.252;2023-04-24T12:31:11;2.90;;;2.80;;
11338;SDS011;5724;42.684;23.252;2023-04-24T12:33:36;3.25;;;3.05;;
11338;SDS011;5724;42.684;23.252;2023-04-24T12:36:03;4.03;;;3.17;;
11338;SDS011;5724;42.684;23.252;2023-04-24T12:38:30;4.43;;;4.20;;
11338;SDS011;5724;42.684;23.252;2023-04-24T12:43:51;5.75;;;3.00;;
11338;SDS011;5724;42.684;23.252;2023-04-24T12:46:17;4.43;;;3.53;;
11338;SDS011;5724;42.684;23.252;2023-04-24T12:48:42;3.50;;;3.20;;
11338;SDS011;5724;42.684;23.252;2023-04-24T12:51:08;3.70;;;3.50;;
11338;SDS011;5724;42.684;23.252;2023-04-24T12:53:33;3.63;;;3.38;;
11338;SDS011;5724;42.684;23.252;2023-04-24T12:55:59;3.70;;;3.40;;
11338;SDS011;5724;42.684;23.252;2023-04-24T12:58:24;3.33;;;3.13;;
11338;SDS011;5724;42.684;23.252;2023-04-24T13:00:50;3.90;;;3.70;;
11338;SDS011;5724;42.684;23.252;2023-04-24T13:03:16;4.07;;;3.78;;
11338;SDS011;5724;42.684;23.252;2023-04-24T13:05:43;4.05;;;3.42;;
11338;SDS011;5724;42.684;23.252;2023-04-24T13:08:08;4.28;;;3.45;;
11338;SDS011;5724;42.684;23.252;2023-04-24T13:10:34;3.67;;;3.47;;
11338;SDS011;5724;42.684;23.252;2023-04-24T13:13:00;3.63;;;3.50;;
11338;SDS011;5724;42.684;23.252;2023-04-24T13:15:25;3.58;;;3.28;;
11338;SDS011;5724;42.684;23.252;2023-04-24T13:17:51;3.28;;;3.08;;
11338;SDS011;5724;42.684;23.252;2023-04-24T13:20:17;4.13;;;2.97;;
11338;SDS011;5724;42.684;23.252;2023-04-24T13:22:43;3.33;;;3.13;;
11338;SDS011;5724;42.684;23.252;2023-04-24T13:25:08;3.22;;;3.08;;
11338;SDS011;5724;42.684;23.252;2023-04-24T13:27:35;3.72;;;3.45;;
11338;SDS011;5724;42.684;23.252;2023-04-24T13:30:00;4.70;;;3.42;;
11338;SDS011;5724;42.684;23.252;2023-04-24T13:32:26;2.95;;;2.70;;
11338;SDS011;5724;42.684;23.252;2023-04-24T13:34:52;3.05;;;2.92;;
11338;SDS011;5724;42.684;23.252;2023-04-24T13:37:18;3.03;;;2.75;;
11338;SDS011;5724;42.684;23.252;2023-04-24T13:39:43;3.45;;;3.10;;
11338;SDS011;5724;42.684;23.252;2023-04-24T13:42:09;2.90;;;2.70;;
11338;SDS011;5724;42.684;23.252;2023-04-24T13:44:34;2.92;;;2.72;;
11338;SDS011;5724;42.684;23.252;2023-04-24T13:47:00;4.88;;;3.58;;
11338;SDS011;5724;42.684;23.252;2023-04-24T13:49:26;4.22;;;4.03;;
11338;SDS011;5724;42.684;23.252;2023-04-24T13:51:53;3.20;;;3.00;;
11338;SDS011;5724;42.684;23.252;2023-04-24T13:54:20;4.28;;;3.33;;
11338;SDS011;5724;42.684;23.252;2023-04-24T13:56:47;3.45;;;2.88;;
11338;SDS011;5724;42.684;23.252;2023-04-24T13:59:12;3.33;;;3.10;;
11338;SDS011;5724;42.684;23.252;2023-04-24T14:01:38;2.90;;;2.65;;
11338;SDS011;5724;42.684;23.252;2023-04-24T14:04:04;4.38;;;2.90;;
11338;SDS011;5724;42.684;23.252;2023-04-24T14:06:29;2.90;;;2.80;;
11338;SDS011;5724;42.684;23.252;2023-04-24T14:08:56;2.97;;;2.75;;
11338;SDS011;5724;42.684;23.252;2023-04-24T14:11:21;3.03;;;2.70;;
11338;SDS011;5724;42.684;23.252;2023-04-24T14:13:47;3.20;;;2.90;;
11338;SDS011;5724;42.684;23.252;2023-04-24T14:16:13;2.70;;;2.60;;
11338;SDS011;5724;42.684;23.252;2023-04-24T14:18:39;3.30;;;3.00;;
11338;SDS011;5724;42.684;23.252;2023-04-24T14:21:04;2.85;;;2.55;;
11338;SDS011;5724;42.684;23.252;2023-04-24T14:23:30;3.00;;;2.80;;
11338;SDS011;5724;42.684;23.252;2023-04-24T14:25:59;2.63;;;2.53;;
11338;SDS011;5724;42.684;23.252;2023-04-24T14:28:25;3.78;;;2.50;;
11338;SDS011;5724;42.684;23.252;2023-04-24T14:30:51;3.65;;;2.65;;
11338;SDS011;5724;42.684;23.252;2023-04-24T14:33:17;3.72;;;2.58;;
11338;SDS011;5724;42.684;23.252;2023-04-24T14:35:43;3.50;;;3.20;;
11338;SDS011;5724;42.684;23.252;2023-04-24T14:38:08;3.38;;;3.17;;
11338;SDS011;5724;42.684;23.252;2023-04-24T14:40:34;2.83;;;2.72;;
11338;SDS011;5724;42.684;23.252;2023-04-24T14:43:00;3.95;;;3.22;;
11338;SDS011;5724;42.684;23.252;2023-04-24T14:45:26;3.15;;;2.85;;
11338;SDS011;5724;42.684;23.252;2023-04-24T14:47:52;3.13;;;2.90;;
11338;SDS011;5724;42.684;23.252;2023-04-24T14:50:17;4.38;;;2.88;;
11338;SDS011;5724;42.684;23.252;2023-04-24T14:52:43;6.43;;;3.20;;
11338;SDS011;5724;42.684;23.252;2023-04-24T14:55:08;3.78;;;2.95;;
11338;SDS011;5724;42.684;23.252;2023-04-24T14:57:34;7.45;;;6.72;;
11338;SDS011;5724;42.684;23.252;2023-04-24T15:00:01;12.88;;;8.82;;